Time;durP1;ratioP1;P1;durP2;ratioP2;P2;SDS_P1;SDS_P2;PMS_P1;PMS_P2;Temp;Humidity;BMP_temperature;BMP_pressure;BME280_temperature;BME280_humidity;BME280_pressure;Samples;Min_cycle;Max_cycle;Signal;HPM_P1;HPM_P2
2021/09/24 00:00:56;;;;;;;14.75;10.30;;;;;;;;;;5119608;28;20023;-85
2021/09/24 00:03:23;;;;;;;13.45;10.95;;;;;;;;;;5118289;28;20343;-86
2021/09/24 00:05:49;;;;;;;16.85;10.55;;;;;;;;;;5119218;28;20069;-86
2021/09/24 00:08:16;;;;;;;17.48;13.20;;;;;;;;;;5118218;28;20034;-86
2021/09/24 00:10:42;;;;;;;18.75;12.98;;;;;;;;;;5119306;28;20081;-85
2021/09/24 00:13:08;;;;;;;14.73;11.05;;;;;;;;;;5118940;28;20107;-85
2021/09/24 00:15:34;;;;;;;22.02;11.70;;;;;;;;;;5119191;28;20023;-85
2021/09/24 00:18:01;;;;;;;18.33;12.02;;;;;;;;;;5119164;28;20062;-87
2021/09/24 00:20:27;;;;;;;18.70;11.88;;;;;;;;;;5119196;28;20085;-87
2021/09/24 00:22:53;;;;;;;20.83;13.75;;;;;;;;;;5118212;28;20024;-87
2021/09/24 00:25:19;;;;;;;19.00;12.32;;;;;;;;;;5118042;28;20027;-88
2021/09/24 00:27:45;;;;;;;17.50;11.98;;;;;;;;;;5117334;28;20047;-84
2021/09/24 00:30:11;;;;;;;16.63;12.30;;;;;;;;;;5118566;28;20069;-84
2021/09/24 00:32:38;;;;;;;14.13;10.85;;;;;;;;;;5117608;28;20035;-84
2021/09/24 00:35:04;;;;;;;19.95;13.27;;;;;;;;;;5118920;28;20084;-84
2021/09/24 00:37:30;;;;;;;17.27;11.95;;;;;;;;;;5116973;28;20032;-84
2021/09/24 00:39:57;;;;;;;17.65;12.05;;;;;;;;;;5118917;28;20019;-87
2021/09/24 00:42:23;;;;;;;15.82;11.65;;;;;;;;;;5118699;28;20047;-86
2021/09/24 00:44:49;;;;;;;15.50;11.07;;;;;;;;;;5118580;28;20098;-86
2021/09/24 00:47:16;;;;;;;17.10;11.75;;;;;;;;;;5118441;28;20019;-85
2021/09/24 00:49:42;;;;;;;17.00;11.50;;;;;;;;;;5117648;28;20360;-86
2021/09/24 00:52:09;;;;;;;12.82;10.13;;;;;;;;;;5118657;28;20406;-86
2021/09/24 00:54:35;;;;;;;14.98;11.38;;;;;;;;;;5118416;28;20067;-86
2021/09/24 00:57:02;;;;;;;16.40;11.82;;;;;;;;;;5118236;28;20024;-85
2021/09/24 00:59:28;;;;;;;13.32;11.20;;;;;;;;;;5118717;28;20026;-86
2021/09/24 01:01:54;;;;;;;15.27;11.73;;;;;;;;;;5117473;28;20290;-86
2021/09/24 01:04:20;;;;;;;14.90;10.45;;;;;;;;;;5118404;28;20015;-86
2021/09/24 01:06:46;;;;;;;12.90;10.52;;;;;;;;;;5117322;28;20031;-86
2021/09/24 01:09:13;;;;;;;11.00;9.50;;;;;;;;;;5117238;28;20020;-86
2021/09/24 01:11:39;;;;;;;15.00;10.02;;;;;;;;;;5117154;28;20028;-85
2021/09/24 01:14:05;;;;;;;15.23;10.20;;;;;;;;;;5118056;28;20377;-84
2021/09/24 01:16:32;;;;;;;13.80;10.88;;;;;;;;;;5117050;28;20030;-85
2021/09/24 01:18:58;;;;;;;14.40;9.63;;;;;;;;;;5116930;28;20024;-85
2021/09/24 01:21:24;;;;;;;15.65;11.10;;;;;;;;;;5117947;28;20027;-86
2021/09/24 01:23:51;;;;;;;16.05;12.38;;;;;;;;;;5118075;28;20097;-85
2021/09/24 01:26:17;;;;;;;13.27;10.23;;;;;;;;;;5117849;28;20027;-85
2021/09/24 01:28:44;;;;;;;13.57;10.80;;;;;;;;;;5117177;28;20085;-87
2021/09/24 01:31:11;;;;;;;12.63;10.02;;;;;;;;;;5118097;28;20024;-86
2021/09/24 01:33:38;;;;;;;13.40;9.75;;;;;;;;;;5119072;28;20073;-86
2021/09/24 01:36:04;;;;;;;12.98;10.65;;;;;;;;;;5122201;28;20027;-84
2021/09/24 01:38:30;;;;;;;14.48;10.73;;;;;;;;;;5122120;28;20047;-85
2021/09/24 01:40:56;;;;;;;12.32;9.50;;;;;;;;;;5122148;28;20109;-86
2021/09/24 01:43:22;;;;;;;15.95;9.70;;;;;;;;;;5120997;28;20026;-86
2021/09/24 01:45:48;;;;;;;13.35;9.82;;;;;;;;;;5121859;28;20027;-86
2021/09/24 01:48:14;;;;;;;15.35;9.13;;;;;;;;;;5121814;28;20019;-86
2021/09/24 01:50:40;;;;;;;11.50;9.35;;;;;;;;;;5120929;28;20068;-86
2021/09/24 01:53:06;;;;;;;15.55;9.93;;;;;;;;;;5120597;28;20034;-86
2021/09/24 01:55:32;;;;;;;10.20;8.80;;;;;;;;;;5120512;28;20024;-86
2021/09/24 01:57:58;;;;;;;11.35;8.93;;;;;;;;;;5121446;28;20077;-85
2021/09/24 02:00:24;;;;;;;12.68;9.25;;;;;;;;;;5121774;28;20091;-85
2021/09/24 02:02:50;;;;;;;12.07;9.50;;;;;;;;;;5121807;28;20028;-85
2021/09/24 02:05:16;;;;;;;12.57;9.00;;;;;;;;;;5121657;28;20023;-86
2021/09/24 02:07:45;;;;;;;13.55;10.30;;;;;;;;;;5121557;28;20416;-86
2021/09/24 02:10:11;;;;;;;13.55;10.05;;;;;;;;;;5121578;28;20118;-85
2021/09/24 02:12:38;;;;;;;13.90;10.57;;;;;;;;;;5121513;28;20027;-85
2021/09/24 02:15:04;;;;;;;12.95;9.52;;;;;;;;;;5121441;28;20035;-85
2021/09/24 02:17:30;;;;;;;13.35;9.13;;;;;;;;;;5121240;28;20020;-85
2021/09/24 02:19:56;;;;;;;12.95;9.88;;;;;;;;;;5121392;28;20416;-85
2021/09/24 02:22:25;;;;;;;12.80;9.32;;;;;;;;;;5121628;28;20598;-86
2021/09/24 02:24:51;;;;;;;13.10;9.80;;;;;;;;;;5121257;28;20031;-85
2021/09/24 02:27:17;;;;;;;12.32;8.82;;;;;;;;;;5120985;28;20047;-85
2021/09/24 02:29:43;;;;;;;14.90;10.20;;;;;;;;;;5120984;28;20098;-85
2021/09/24 02:32:09;;;;;;;11.30;9.18;;;;;;;;;;5121299;28;20363;-85
2021/09/24 02:34:35;;;;;;;12.77;9.05;;;;;;;;;;5120099;28;20072;-86
2021/09/24 02:37:01;;;;;;;15.02;8.85;;;;;;;;;;5119437;28;20127;-86
2021/09/24 02:39:27;;;;;;;14.43;10.10;;;;;;;;;;5120096;28;20045;-86
2021/09/24 02:41:54;;;;;;;10.77;9.40;;;;;;;;;;5121088;28;20410;-86
2021/09/24 02:44:20;;;;;;;11.90;9.30;;;;;;;;;;5119516;28;20056;-86
2021/09/24 02:46:46;;;;;;;12.02;9.18;;;;;;;;;;5120826;28;20306;-85
2021/09/24 02:49:12;;;;;;;12.10;9.20;;;;;;;;;;5120803;28;20035;-86
2021/09/24 02:51:38;;;;;;;13.95;10.15;;;;;;;;;;5121171;28;20020;-85
2021/09/24 02:54:04;;;;;;;16.42;12.85;;;;;;;;;;5120743;28;20334;-85
2021/09/24 02:56:31;;;;;;;19.52;13.32;;;;;;;;;;5119117;28;20065;-86
2021/09/24 02:58:57;;;;;;;17.92;13.00;;;;;;;;;;5120912;28;20020;-86
2021/09/24 03:01:23;;;;;;;17.13;13.15;;;;;;;;;;5120418;28;20024;-86
2021/09/24 03:03:49;;;;;;;16.40;12.20;;;;;;;;;;5120659;28;20020;-86
2021/09/24 03:06:15;;;;;;;13.82;10.93;;;;;;;;;;5120583;28;20102;-86
2021/09/24 03:08:41;;;;;;;15.20;10.25;;;;;;;;;;5120556;28;20028;-86
2021/09/24 03:11:07;;;;;;;12.75;9.25;;;;;;;;;;5120326;28;20031;-86
2021/09/24 03:13:33;;;;;;;12.35;9.88;;;;;;;;;;5120319;28;20023;-87
2021/09/24 03:16:00;;;;;;;11.93;9.63;;;;;;;;;;5119358;28;20024;-86
2021/09/24 03:18:27;;;;;;;12.13;9.50;;;;;;;;;;5119172;28;20107;-87
2021/09/24 03:20:53;;;;;;;12.07;9.20;;;;;;;;;;5119354;28;20336;-87
2021/09/24 03:23:19;;;;;;;13.93;9.70;;;;;;;;;;5120144;28;20020;-87
2021/09/24 03:25:46;;;;;;;12.32;9.85;;;;;;;;;;5120150;28;20059;-86
2021/09/24 03:28:12;;;;;;;13.65;9.27;;;;;;;;;;5120040;28;20436;-86
2021/09/24 03:30:39;;;;;;;14.88;9.57;;;;;;;;;;5120501;28;20391;-86
2021/09/24 03:33:05;;;;;;;12.35;9.63;;;;;;;;;;5118903;28;20034;-86
2021/09/24 03:35:31;;;;;;;12.27;9.55;;;;;;;;;;5120129;28;20081;-86
2021/09/24 03:37:57;;;;;;;11.98;9.65;;;;;;;;;;5119854;28;20047;-86
2021/09/24 03:40:23;;;;;;;12.15;9.77;;;;;;;;;;5119794;28;20038;-85
2021/09/24 03:42:49;;;;;;;13.02;10.40;;;;;;;;;;5119756;28;20290;-85
2021/09/24 03:45:15;;;;;;;13.98;10.48;;;;;;;;;;5119420;28;20020;-86
2021/09/24 03:47:41;;;;;;;14.48;10.75;;;;;;;;;;5118583;28;20027;-85
2021/09/24 03:50:08;;;;;;;12.63;10.73;;;;;;;;;;5119268;28;20062;-85
2021/09/24 03:52:34;;;;;;;13.57;9.85;;;;;;;;;;5119906;28;20047;-85
2021/09/24 03:55:01;;;;;;;14.18;9.95;;;;;;;;;;5118160;28;20485;-85
2021/09/24 03:57:27;;;;;;;15.82;9.85;;;;;;;;;;5118526;28;20028;-84
2021/09/24 03:59:53;;;;;;;15.20;10.23;;;;;;;;;;5119454;28;20115;-85
2021/09/24 04:02:19;;;;;;;17.77;10.57;;;;;;;;;;5119321;28;20035;-85
2021/09/24 04:04:46;;;;;;;13.60;10.48;;;;;;;;;;5119423;28;20398;-86
2021/09/24 04:07:12;;;;;;;14.05;10.65;;;;;;;;;;5119463;28;20055;-88
2021/09/24 04:09:38;;;;;;;14.75;10.75;;;;;;;;;;5119494;28;20028;-87
2021/09/24 04:12:05;;;;;;;18.90;11.20;;;;;;;;;;5118244;28;20066;-88
2021/09/24 04:14:31;;;;;;;13.95;10.57;;;;;;;;;;5119048;28;20046;-87
2021/09/24 04:16:57;;;;;;;14.63;11.27;;;;;;;;;;5118785;28;20538;-86
2021/09/24 04:19:23;;;;;;;18.05;11.25;;;;;;;;;;5119179;28;20019;-85
2021/09/24 04:21:49;;;;;;;14.43;10.50;;;;;;;;;;5119253;28;20110;-86
2021/09/24 04:24:15;;;;;;;14.88;11.43;;;;;;;;;;5119121;28;20019;-86
2021/09/24 04:26:42;;;;;;;13.43;10.70;;;;;;;;;;5118877;28;20145;-87
2021/09/24 04:29:08;;;;;;;15.05;11.05;;;;;;;;;;5118065;28;20032;-87
2021/09/24 04:31:34;;;;;;;15.52;11.20;;;;;;;;;;5117237;28;20036;-89
2021/09/24 04:34:00;;;;;;;14.52;11.32;;;;;;;;;;5117821;28;20038;-86
2021/09/24 04:36:26;;;;;;;18.33;12.02;;;;;;;;;;5118515;28;20088;-85
2021/09/24 04:38:52;;;;;;;22.50;10.80;;;;;;;;;;5118740;28;20061;-84
2021/09/24 04:41:18;;;;;;;16.85;11.02;;;;;;;;;;5118639;28;20016;-85
2021/09/24 04:43:45;;;;;;;16.08;10.98;;;;;;;;;;5118717;28;20020;-86
2021/09/24 04:46:11;;;;;;;18.55;11.35;;;;;;;;;;5118466;28;20035;-85
2021/09/24 04:48:37;;;;;;;16.80;11.23;;;;;;;;;;5117528;28;20147;-85
2021/09/24 04:51:03;;;;;;;14.73;11.15;;;;;;;;;;5118773;28;20096;-85
2021/09/24 04:53:29;;;;;;;16.88;11.57;;;;;;;;;;5116713;28;20074;-85
2021/09/24 04:55:55;;;;;;;17.95;11.98;;;;;;;;;;5118415;28;20020;-85
2021/09/24 04:58:21;;;;;;;18.20;12.70;;;;;;;;;;5118353;28;20119;-86
2021/09/24 05:00:49;;;;;;;15.48;12.10;;;;;;;;;;5113205;28;20031;-85
2021/09/24 05:03:16;;;;;;;16.00;11.85;;;;;;;;;;5118289;28;20024;-87
2021/09/24 05:05:42;;;;;;;19.00;13.18;;;;;;;;;;5117189;28;20015;-87
2021/09/24 05:08:08;;;;;;;15.07;11.88;;;;;;;;;;5117039;28;20038;-88
2021/09/24 05:10:34;;;;;;;19.17;12.50;;;;;;;;;;5117391;28;20473;-87
2021/09/24 05:13:00;;;;;;;16.17;12.60;;;;;;;;;;5118164;28;20024;-87
2021/09/24 05:15:28;;;;;;;15.93;11.95;;;;;;;;;;5117178;28;20023;-87
2021/09/24 05:17:54;;;;;;;19.42;12.25;;;;;;;;;;5118067;28;20052;-87
2021/09/24 05:20:20;;;;;;;16.15;12.05;;;;;;;;;;5117737;28;20059;-85
2021/09/24 05:22:46;;;;;;;20.02;13.68;;;;;;;;;;5118763;28;20024;-89
2021/09/24 05:25:13;;;;;;;23.15;13.73;;;;;;;;;;5113112;28;20023;-86
2021/09/24 05:27:39;;;;;;;19.85;13.25;;;;;;;;;;5106895;28;20357;-83
2021/09/24 05:30:07;;;;;;;20.35;13.95;;;;;;;;;;5097238;28;20044;-87
2021/09/24 05:32:33;;;;;;;23.13;14.13;;;;;;;;;;5097880;28;20028;-82
2021/09/24 05:34:59;;;;;;;25.67;16.30;;;;;;;;;;5097266;28;20070;-83
2021/09/24 05:37:25;;;;;;;25.50;15.43;;;;;;;;;;5097437;28;20028;-84
2021/09/24 05:39:51;;;;;;;20.40;13.90;;;;;;;;;;5097386;28;20313;-83
2021/09/24 05:42:17;;;;;;;19.95;12.90;;;;;;;;;;5097345;28;20364;-83
2021/09/24 05:44:43;;;;;;;18.42;13.15;;;;;;;;;;5096251;28;20031;-83
2021/09/24 05:47:09;;;;;;;21.02;15.02;;;;;;;;;;5097046;28;20069;-83
2021/09/24 05:49:36;;;;;;;24.25;15.98;;;;;;;;;;5097345;28;20021;-83
2021/09/24 05:52:02;;;;;;;34.80;18.83;;;;;;;;;;5097268;28;20402;-83
2021/09/24 05:54:28;;;;;;;32.33;19.17;;;;;;;;;;5097477;28;20043;-83
2021/09/24 05:56:55;;;;;;;26.77;17.80;;;;;;;;;;5097012;28;20031;-83
2021/09/24 05:59:21;;;;;;;27.30;16.75;;;;;;;;;;5097128;28;20125;-83
2021/09/24 06:01:48;;;;;;;24.90;14.90;;;;;;;;;;5095991;28;20059;-83
2021/09/24 06:04:15;;;;;;;19.55;13.02;;;;;;;;;;5097197;28;20073;-83
2021/09/24 06:06:41;;;;;;;18.95;12.25;;;;;;;;;;5096856;28;20023;-83
2021/09/24 06:09:07;;;;;;;16.92;12.02;;;;;;;;;;5096684;28;20020;-83
2021/09/24 06:11:33;;;;;;;16.67;11.55;;;;;;;;;;5096061;28;20024;-82
2021/09/24 06:13:59;;;;;;;17.63;12.45;;;;;;;;;;5096931;28;20398;-82
2021/09/24 06:16:25;;;;;;;18.48;12.40;;;;;;;;;;5096884;28;20020;-82
2021/09/24 06:18:51;;;;;;;21.98;14.82;;;;;;;;;;5096944;28;20024;-84
2021/09/24 06:21:18;;;;;;;14.38;10.55;;;;;;;;;;5100371;28;20068;-83
2021/09/24 06:23:45;;;;;;;13.50;10.73;;;;;;;;;;5105869;28;20023;-81
2021/09/24 06:26:12;;;;;;;17.05;10.88;;;;;;;;;;5112360;28;20039;-82
2021/09/24 06:28:38;;;;;;;15.68;12.60;;;;;;;;;;5120851;28;20055;-83
2021/09/24 06:31:05;;;;;;;16.85;12.57;;;;;;;;;;5120161;28;20373;-83
2021/09/24 06:33:31;;;;;;;16.50;11.48;;;;;;;;;;5121183;28;20028;-83
2021/09/24 06:35:57;;;;;;;15.05;10.68;;;;;;;;;;5119971;28;20027;-83
2021/09/24 06:38:23;;;;;;;18.75;13.57;;;;;;;;;;5121016;28;20069;-83
2021/09/24 06:40:49;;;;;;;16.13;10.88;;;;;;;;;;5119468;28;20410;-83
2021/09/24 06:43:16;;;;;;;13.77;9.82;;;;;;;;;;5120643;28;20046;-83
2021/09/24 06:45:42;;;;;;;12.25;10.05;;;;;;;;;;5120838;28;20317;-83
2021/09/24 06:48:08;;;;;;;13.98;10.60;;;;;;;;;;5120569;28;20037;-84
2021/09/24 06:50:35;;;;;;;13.90;9.40;;;;;;;;;;5120476;28;20035;-83
2021/09/24 06:53:01;;;;;;;12.82;10.27;;;;;;;;;;5120468;28;20035;-83
2021/09/24 06:55:27;;;;;;;13.32;10.25;;;;;;;;;;5120641;28;20028;-83
2021/09/24 06:57:53;;;;;;;13.55;9.80;;;;;;;;;;5120261;27;20042;-82
2021/09/24 07:00:20;;;;;;;13.00;9.98;;;;;;;;;;5116229;27;20408;-83
2021/09/24 07:02:46;;;;;;;14.55;9.93;;;;;;;;;;5108023;28;20028;-83
2021/09/24 07:05:12;;;;;;;20.80;11.68;;;;;;;;;;5120324;28;20028;-80
2021/09/24 07:07:39;;;;;;;57.05;36.28;;;;;;;;;;5120355;28;20330;-82
2021/09/24 07:10:05;;;;;;;31.10;18.10;;;;;;;;;;5119022;28;20031;-82
2021/09/24 07:12:31;;;;;;;102.03;65.65;;;;;;;;;;5119983;28;20028;-84
2021/09/24 07:14:57;;;;;;;32.50;22.30;;;;;;;;;;5120368;28;20015;-81
2021/09/24 07:17:23;;;;;;;43.83;28.00;;;;;;;;;;5119834;28;20102;-80
2021/09/24 07:19:49;;;;;;;37.13;23.92;;;;;;;;;;5118351;28;20027;-79
2021/09/24 07:22:16;;;;;;;44.67;30.65;;;;;;;;;;5119893;28;20032;-79
2021/09/24 11:00:45;;;;;;;9.95;4.70;;;;;;;;;;5116109;27;20673;-83
2021/09/24 11:03:22;;;;;;;5.50;3.60;;;;;;;;;;5113408;28;20030;-82
2021/09/24 11:05:55;;;;;;;9.30;4.82;;;;;;;;;;5106138;28;20295;-82
2021/09/24 11:08:30;;;;;;;5.78;3.80;;;;;;;;;;5115629;28;20085;-82
2021/09/24 11:11:03;;;;;;;9.75;3.85;;;;;;;;;;5115451;28;20066;-82
2021/09/24 11:13:29;;;;;;;7.65;3.63;;;;;;;;;;5115090;28;20035;-80
2021/09/24 11:16:00;;;;;;;7.43;3.40;;;;;;;;;;5114831;28;20030;-80
2021/09/24 11:18:46;;;;;;;5.63;4.18;;;;;;;;;;5114737;28;20035;-80
2021/09/24 11:21:12;;;;;;;4.47;3.53;;;;;;;;;;5113981;28;20032;-80
2021/09/24 11:23:38;;;;;;;5.82;3.45;;;;;;;;;;5111548;28;20055;-80
2021/09/24 11:26:10;;;;;;;4.68;3.15;;;;;;;;;;5111972;28;20308;-81
2021/09/24 11:28:36;;;;;;;7.07;3.88;;;;;;;;;;5094438;28;20028;-81
2021/09/24 11:31:02;;;;;;;5.97;3.50;;;;;;;;;;5094015;28;20070;-81
2021/09/24 11:33:45;;;;;;;5.10;3.33;;;;;;;;;;5092901;28;20048;-81
2021/09/24 11:36:11;;;;;;;7.40;3.70;;;;;;;;;;5093993;28;20440;-80
2021/09/24 11:38:37;;;;;;;4.32;3.30;;;;;;;;;;5092739;28;20429;-80
2021/09/24 11:41:04;;;;;;;5.63;3.90;;;;;;;;;;5093873;28;20032;-80
2021/09/24 11:43:31;;;;;;;3.40;3.10;;;;;;;;;;5093824;28;20473;-81
2021/09/24 11:45:58;;;;;;;6.75;3.50;;;;;;;;;;5093842;28;20020;-80
2021/09/24 11:48:29;;;;;;;7.57;3.72;;;;;;;;;;5093690;28;20035;-80
2021/09/24 11:50:56;;;;;;;5.13;3.55;;;;;;;;;;5093712;28;20031;-80
2021/09/24 11:53:22;;;;;;;8.60;4.05;;;;;;;;;;5093562;28;20032;-81
2021/09/24 11:55:48;;;;;;;5.85;3.58;;;;;;;;;;5092588;28;20039;-81
2021/09/24 11:58:17;;;;;;;4.15;3.03;;;;;;;;;;5093476;28;20171;-80
2021/09/24 12:00:43;;;;;;;6.25;3.22;;;;;;;;;;5093647;28;20020;-80
2021/09/24 12:03:11;;;;;;;5.88;4.20;;;;;;;;;;5093470;28;20406;-80
2021/09/24 12:05:38;;;;;;;6.90;3.47;;;;;;;;;;5093374;28;20028;-80
2021/09/24 12:08:12;;;;;;;6.72;2.85;;;;;;;;;;5092245;28;20021;-79
2021/09/24 12:10:39;;;;;;;5.20;3.22;;;;;;;;;;5086587;28;20263;-80
2021/09/24 12:13:06;;;;;;;7.07;3.30;;;;;;;;;;5079804;28;20028;-79
2021/09/24 12:15:48;;;;;;;6.95;3.13;;;;;;;;;;5079844;28;20322;-79
2021/09/24 12:18:14;;;;;;;6.50;3.40;;;;;;;;;;5079242;28;20465;-79
2021/09/24 12:20:40;;;;;;;4.72;2.92;;;;;;;;;;5078387;28;20035;-79
2021/09/24 12:23:06;;;;;;;5.60;2.50;;;;;;;;;;5079164;28;20025;-80
2021/09/24 12:25:32;;;;;;;5.10;3.30;;;;;;;;;;5079155;28;20028;-79
2021/09/24 12:28:14;;;;;;;5.65;2.60;;;;;;;;;;5079472;28;20314;-80
2021/09/24 12:30:44;;;;;;;4.82;2.78;;;;;;;;;;5079670;28;20024;-79
2021/09/24 12:33:14;;;;;;;6.65;2.92;;;;;;;;;;5079534;28;20482;-79
2021/09/24 12:35:40;;;;;;;4.20;2.92;;;;;;;;;;5078336;28;20029;-81
2021/09/24 12:38:23;;;;;;;7.13;2.80;;;;;;;;;;5079493;28;20051;-81
2021/09/24 12:41:05;;;;;;;3.38;2.80;;;;;;;;;;5078225;28;20033;-81
2021/09/24 12:43:34;;;;;;;4.38;3.22;;;;;;;;;;5079673;28;20051;-81
2021/09/24 12:46:00;;;;;;;8.20;3.03;;;;;;;;;;5079578;28;20047;-80
2021/09/24 12:48:33;;;;;;;5.65;2.95;;;;;;;;;;5078281;28;20025;-80
2021/09/24 12:51:00;;;;;;;5.18;2.65;;;;;;;;;;5079353;28;20044;-80
2021/09/24 12:53:26;;;;;;;5.25;3.05;;;;;;;;;;5079210;28;20031;-80
2021/09/24 12:55:52;;;;;;;7.03;3.47;;;;;;;;;;5079078;28;20016;-81
2021/09/24 12:58:18;;;;;;;6.60;4.07;;;;;;;;;;5077703;28;20040;-81
2021/09/24 13:00:46;;;;;;;7.90;3.85;;;;;;;;;;5078817;28;20017;-81
2021/09/24 13:03:12;;;;;;;5.53;3.15;;;;;;;;;;5079332;28;20021;-81
2021/09/24 13:05:40;;;;;;;3.97;2.97;;;;;;;;;;5078923;28;20303;-81
2021/09/24 13:08:07;;;;;;;6.28;3.20;;;;;;;;;;5078043;28;20094;-80
2021/09/24 13:10:38;;;;;;;6.80;3.20;;;;;;;;;;5078631;28;20034;-80
2021/09/24 13:13:04;;;;;;;4.78;3.35;;;;;;;;;;5078700;28;20402;-80
2021/09/24 13:15:34;;;;;;;8.52;3.17;;;;;;;;;;5078680;28;20025;-80
2021/09/24 13:18:03;;;;;;;7.93;3.45;;;;;;;;;;5077841;28;20366;-80
2021/09/24 13:20:30;;;;;;;6.82;4.50;;;;;;;;;;5078604;28;20370;-80
2021/09/24 13:22:56;;;;;;;7.78;3.53;;;;;;;;;;5077590;28;20013;-80
2021/09/24 13:25:25;;;;;;;4.20;2.92;;;;;;;;;;5078767;28;20021;-80
2021/09/24 13:27:51;;;;;;;5.30;3.05;;;;;;;;;;5078403;28;20027;-80
2021/09/24 13:30:19;;;;;;;5.60;2.85;;;;;;;;;;5077279;28;20437;-80
2021/09/24 13:32:45;;;;;;;9.52;5.45;;;;;;;;;;5078449;28;20465;-81
2021/09/24 13:35:14;;;;;;;5.03;2.80;;;;;;;;;;5078272;28;20067;-81
2021/09/24 13:37:41;;;;;;;5.40;3.58;;;;;;;;;;5077089;28;20058;-81
2021/09/24 13:40:08;;;;;;;4.50;3.03;;;;;;;;;;5078057;28;20025;-81
2021/09/24 13:42:35;;;;;;;4.18;3.15;;;;;;;;;;5078053;28;20033;-81
2021/09/24 13:45:02;;;;;;;5.28;3.85;;;;;;;;;;5078059;28;20310;-81
2021/09/24 13:47:28;;;;;;;6.93;4.47;;;;;;;;;;5078033;28;20145;-80
2021/09/24 13:49:55;;;;;;;6.30;4.30;;;;;;;;;;5077981;28;20072;-81
2021/09/24 13:52:21;;;;;;;8.07;3.20;;;;;;;;;;5078117;28;20024;-80
2021/09/24 13:54:47;;;;;;;5.43;3.47;;;;;;;;;;5078157;28;20029;-80
2021/09/24 13:57:13;;;;;;;6.78;3.10;;;;;;;;;;5077888;28;20103;-81
2021/09/24 13:59:41;;;;;;;3.08;2.75;;;;;;;;;;5077653;28;20063;-81
2021/09/24 14:02:10;;;;;;;5.70;3.10;;;;;;;;;;5077680;28;20032;-81
2021/09/24 14:04:36;;;;;;;4.53;3.15;;;;;;;;;;5077793;28;20428;-81
2021/09/24 14:07:02;;;;;;;7.35;2.78;;;;;;;;;;5077821;28;20029;-81
2021/09/24 14:09:28;;;;;;;5.07;2.90;;;;;;;;;;5076614;28;20036;-81
2021/09/24 14:11:55;;;;;;;5.03;2.78;;;;;;;;;;5077489;28;20077;-81
2021/09/24 14:14:21;;;;;;;6.53;2.30;;;;;;;;;;5077504;28;20031;-81
2021/09/24 14:16:47;;;;;;;3.75;2.30;;;;;;;;;;5077464;28;20070;-80
2021/09/24 14:19:13;;;;;;;3.72;2.15;;;;;;;;;;5077314;28;20032;-81
2021/09/24 14:21:39;;;;;;;3.28;2.20;;;;;;;;;;5076358;28;20032;-81
2021/09/24 14:24:05;;;;;;;4.60;2.70;;;;;;;;;;5077702;28;20027;-81
2021/09/24 14:26:32;;;;;;;4.82;2.60;;;;;;;;;;5077428;28;20062;-81
2021/09/24 14:28:58;;;;;;;4.90;2.58;;;;;;;;;;5076308;28;20055;-81
2021/09/24 14:31:24;;;;;;;4.10;2.40;;;;;;;;;;5077116;28;20429;-81
2021/09/24 14:33:50;;;;;;;4.82;2.00;;;;;;;;;;5076803;28;20043;-81
2021/09/24 14:36:16;;;;;;;3.95;2.63;;;;;;;;;;5076847;28;20044;-80
2021/09/24 14:38:43;;;;;;;7.15;2.80;;;;;;;;;;5077327;28;20024;-81
2021/09/24 14:41:09;;;;;;;5.90;2.60;;;;;;;;;;5077055;28;20115;-81
2021/09/24 14:43:36;;;;;;;6.35;2.30;;;;;;;;;;5077450;28;20029;-81
2021/09/24 14:46:05;;;;;;;6.63;3.15;;;;;;;;;;5076944;28;20016;-81
2021/09/24 14:48:31;;;;;;;7.85;3.00;;;;;;;;;;5077274;28;20047;-80
2021/09/24 14:50:57;;;;;;;4.30;3.10;;;;;;;;;;5076199;28;20031;-81
2021/09/24 14:53:24;;;;;;;5.72;2.40;;;;;;;;;;5077151;28;20424;-81
2021/09/24 14:55:50;;;;;;;5.03;2.85;;;;;;;;;;5077226;28;20020;-81
2021/09/24 14:58:16;;;;;;;5.57;2.40;;;;;;;;;;5077124;28;20037;-81
2021/09/24 15:00:42;;;;;;;4.55;2.88;;;;;;;;;;5077220;28;20039;-81
2021/09/24 15:03:08;;;;;;;3.20;2.63;;;;;;;;;;5077357;28;20288;-81
2021/09/24 15:05:34;;;;;;;6.05;2.60;;;;;;;;;;5077230;28;20021;-80
2021/09/24 15:08:00;;;;;;;7.53;2.80;;;;;;;;;;5076966;28;20017;-80
2021/09/24 15:10:27;;;;;;;5.05;2.58;;;;;;;;;;5077073;28;20033;-81
2021/09/24 15:12:55;;;;;;;4.07;2.85;;;;;;;;;;5075773;28;20043;-81
2021/09/24 15:15:24;;;;;;;5.15;2.63;;;;;;;;;;5076820;28;20141;-81
2021/09/24 15:17:52;;;;;;;5.25;2.85;;;;;;;;;;5076925;28;20083;-83
2021/09/24 15:20:19;;;;;;;4.50;2.60;;;;;;;;;;5075622;28;20033;-81
2021/09/24 15:22:47;;;;;;;6.95;3.13;;;;;;;;;;5076730;28;20418;-80
2021/09/24 15:25:15;;;;;;;4.82;3.00;;;;;;;;;;5077022;28;20153;-80
2021/09/24 15:27:46;;;;;;;5.38;2.40;;;;;;;;;;5076882;28;20032;-81
2021/09/24 15:30:13;;;;;;;9.35;3.10;;;;;;;;;;5076534;28;20035;-81
2021/09/24 15:32:39;;;;;;;5.75;2.88;;;;;;;;;;5076703;28;20024;-81
2021/09/24 15:35:08;;;;;;;5.78;3.08;;;;;;;;;;5075683;28;20055;-80
2021/09/24 15:37:34;;;;;;;3.42;2.78;;;;;;;;;;5075676;28;20250;-81
2021/09/24 15:40:00;;;;;;;7.85;3.15;;;;;;;;;;5076812;28;20107;-81
2021/09/24 15:42:26;;;;;;;9.93;3.45;;;;;;;;;;5075249;28;20028;-81
2021/09/24 15:44:53;;;;;;;5.28;2.55;;;;;;;;;;5076668;28;20021;-81
2021/09/24 15:47:19;;;;;;;3.80;3.10;;;;;;;;;;5080440;28;20027;-81
2021/09/24 15:49:45;;;;;;;6.80;2.88;;;;;;;;;;5080282;28;20024;-81
2021/09/24 15:52:11;;;;;;;5.03;3.22;;;;;;;;;;5080173;28;20410;-81
2021/09/24 15:54:37;;;;;;;5.47;3.10;;;;;;;;;;5080479;28;20033;-81
2021/09/24 15:57:03;;;;;;;6.25;2.70;;;;;;;;;;5079953;28;20031;-81
2021/09/24 15:59:29;;;;;;;10.50;3.60;;;;;;;;;;5079878;28;20336;-81
2021/09/24 16:01:55;;;;;;;6.38;3.17;;;;;;;;;;5079274;28;20093;-81
2021/09/24 16:04:21;;;;;;;5.22;3.13;;;;;;;;;;5080345;28;20144;-81
2021/09/24 16:06:47;;;;;;;4.65;2.83;;;;;;;;;;5080092;28;20028;-82
2021/09/24 16:09:14;;;;;;;5.45;3.13;;;;;;;;;;5080211;28;20539;-83
2021/09/24 16:11:42;;;;;;;5.88;3.00;;;;;;;;;;5080361;28;20032;-83
2021/09/24 16:14:08;;;;;;;3.83;3.15;;;;;;;;;;5079019;28;20060;-83
2021/09/24 16:16:34;;;;;;;4.90;3.25;;;;;;;;;;5080159;28;20028;-83
2021/09/24 16:19:00;;;;;;;3.78;3.00;;;;;;;;;;5080028;28;20025;-83
2021/09/24 16:21:26;;;;;;;4.85;2.92;;;;;;;;;;5079973;28;20309;-83
2021/09/24 16:23:53;;;;;;;5.68;3.20;;;;;;;;;;5079990;28;20066;-83
2021/09/24 16:26:19;;;;;;;3.78;2.97;;;;;;;;;;5079753;28;20422;-83
2021/09/24 16:28:46;;;;;;;6.47;3.17;;;;;;;;;;5080035;28;20044;-83
2021/09/24 16:31:12;;;;;;;4.35;3.20;;;;;;;;;;5078477;28;20048;-82
2021/09/24 16:33:38;;;;;;;5.18;3.22;;;;;;;;;;5079594;28;20025;-83
2021/09/24 16:36:04;;;;;;;9.30;3.53;;;;;;;;;;5079450;28;20103;-83
2021/09/24 16:38:30;;;;;;;5.57;3.85;;;;;;;;;;5079867;28;20025;-83
2021/09/24 16:40:57;;;;;;;9.82;3.75;;;;;;;;;;5079438;28;20084;-83
2021/09/24 16:43:23;;;;;;;10.00;4.15;;;;;;;;;;5079982;28;20317;-83
2021/09/24 16:45:49;;;;;;;5.70;3.60;;;;;;;;;;5079552;28;20020;-83
2021/09/24 16:48:15;;;;;;;6.38;3.85;;;;;;;;;;5079525;28;20021;-83
2021/09/24 16:50:42;;;;;;;10.50;3.58;;;;;;;;;;5079207;28;20024;-82
2021/09/24 16:53:08;;;;;;;7.20;4.10;;;;;;;;;;5078155;28;20414;-80
2021/09/24 16:55:34;;;;;;;8.82;4.05;;;;;;;;;;5078362;28;20032;-84
2021/09/24 16:58:04;;;;;;;12.27;4.82;;;;;;;;;;5079255;28;20036;-84
2021/09/24 17:00:37;;;;;;;10.77;4.97;;;;;;;;;;5077998;28;20047;-84
2021/09/24 17:03:03;;;;;;;25.73;7.30;;;;;;;;;;5079471;28;20430;-84
2021/09/24 17:05:29;;;;;;;34.33;11.55;;;;;;;;;;5079221;28;20025;-83
2021/09/24 17:07:55;;;;;;;36.03;14.82;;;;;;;;;;5077887;28;20021;-83
2021/09/24 17:10:22;;;;;;;31.20;14.27;;;;;;;;;;5077693;28;20040;-83
2021/09/24 17:12:48;;;;;;;27.70;13.90;;;;;;;;;;5078931;28;20473;-83
2021/09/24 17:15:14;;;;;;;31.65;14.95;;;;;;;;;;5077888;28;20341;-83
2021/09/24 17:17:40;;;;;;;24.08;13.52;;;;;;;;;;5078900;28;20025;-83
2021/09/24 17:20:08;;;;;;;21.48;11.52;;;;;;;;;;5078673;28;20025;-82
2021/09/24 17:22:34;;;;;;;25.23;10.27;;;;;;;;;;5077853;28;20142;-83
2021/09/24 17:25:00;;;;;;;22.83;9.65;;;;;;;;;;5078631;28;20422;-83
2021/09/24 17:27:26;;;;;;;14.07;9.02;;;;;;;;;;5078595;28;20490;-83
2021/09/24 17:29:52;;;;;;;17.40;8.07;;;;;;;;;;5078486;28;20056;-83
2021/09/24 17:32:22;;;;;;;19.83;7.15;;;;;;;;;;5078556;28;20028;-84
2021/09/24 17:34:49;;;;;;;12.52;6.25;;;;;;;;;;5077349;28;20032;-83
2021/09/24 17:37:15;;;;;;;13.88;6.25;;;;;;;;;;5078516;28;20481;-83
2021/09/24 17:39:42;;;;;;;14.23;6.03;;;;;;;;;;5078565;28;20116;-83
2021/09/24 17:42:08;;;;;;;11.45;6.00;;;;;;;;;;5078501;28;20017;-83
2021/09/24 17:44:34;;;;;;;11.63;6.75;;;;;;;;;;5077281;28;20209;-82
2021/09/24 17:47:01;;;;;;;11.55;5.85;;;;;;;;;;5078345;28;20048;-83
2021/09/24 17:49:27;;;;;;;14.75;7.28;;;;;;;;;;5078045;28;20020;-83
2021/09/24 17:51:53;;;;;;;14.00;7.70;;;;;;;;;;5077220;28;20437;-81
2021/09/24 17:54:19;;;;;;;12.85;7.43;;;;;;;;;;5077151;28;20093;-81
2021/09/24 17:56:45;;;;;;;12.02;7.22;;;;;;;;;;5078162;28;20036;-82
2021/09/24 17:59:11;;;;;;;11.43;7.10;;;;;;;;;;5077684;28;20048;-83
2021/09/24 18:01:37;;;;;;;10.18;5.78;;;;;;;;;;5077941;28;20017;-83
2021/09/24 18:04:04;;;;;;;12.00;5.00;;;;;;;;;;5077858;28;20417;-83